CheckWX is a tool to help pilots better visualize weather data.  It is not intended as a substitute for an official pre-flight weather briefing.

14:45:02 UTC

DRRT METAR
Tahoua Airport
Tahoua, Niger
Current

4 hours ago

DRRT 201100Z 30010KT 0600 SS NSC 37/22 Q1011
Observed
May-20 @ 11:00 UTC
Wind
  • 300° at 10 KTS
Visibility
595 meters
Flight Rules
LIFR
Conditions
Sandstorm
Cloud Levels
  • Clear skies
Temperature
37°C / 99°F
Dewpoint
22°C / 72°F
Heat Index
43°C / 109°F
Humidity
42%
Altimeter
29.85" Hg
Pressure
1010.92 hPa
Previous

5 hours ago

DRRT 201000Z 26022KT 0800 SS NSC 36/22 Q1011
Observed
May-20 @ 10:00 UTC
Wind
  • 260° at 22 KTS
Visibility
805 meters
Flight Rules
LIFR
Conditions
Sandstorm
Cloud Levels
  • Clear skies
Temperature
36°C / 97°F
Dewpoint
22°C / 72°F
Heat Index
41°C / 106°F
Humidity
44%
Altimeter
29.85" Hg
Pressure
1010.92 hPa
Previous

6 hours ago

DRRT 200900Z 26016KT 6000 NSC 35/22 Q1011
Observed
May-20 @ 09:00 UTC
Wind
  • 260° at 16 KTS
Visibility
6,003 meters
Flight Rules
MVFR
Cloud Levels
  • Clear skies
Temperature
35°C / 95°F
Dewpoint
22°C / 72°F
Heat Index
39°C / 103°F
Humidity
47%
Altimeter
29.85" Hg
Pressure
1010.92 hPa